Terminal Aerodrome Forecast
Issued by NWS

Home | Current Version | Previous Version | Text Only | Print | Product List | Glossary On
Versions: 1 2 3 4 5 6 7 8 9 10 11 12 13 14 15 16 17 18 19 20 21 22
000
FTUS43 KTOP 280542
TAFFOE
TAF
KFOE 280542Z 2806/0106 18014G22KT P6SM SCT007 BKN012 WS015/20050KT
      TEMPO 2807/2811 BKN007
     FM281400 20014G20KT P6SM BKN035
     FM010000 30011KT P6SM -RA BKN090=

USA.gov is the U.S. government's official web portal to all federal, state and local government web resources and services.